Temple Hill, Illinois
Current Conditions -  °F | °C
As of 7:55 AM on Monday 24 Nov 2014 (Local Time) from KM30 Reporting Station
Overcast Overcast  
Wind Chill: 39°   Ceiling: 3800
Heat Index: 45°   Visibility: 10mi
Dew Point: 37°   Wind: 10mph
Humidity: 75%   Direction: 270°W
Pressure: 29.65"   Gusts: 21mph
Location:  37.3224°N, 88.5774°W
Report Text: KM30 241355Z AUTO 27009G18KT 10SM SCT023 SCT030 OVC038 07/03 A2965 RMK AO2 T00700029
Loading
Personal Weather Stations






























Interactive Weather Map New forecast layout! Learn more

10-Day Weather Forecast

Advertisements
Track Severe Weather on mobile